CCGS Tanu — CGBY — position and weather

sailwx.info

Track history (hours):
 
Tides and Currents Weather Stations Pressure Air Temp Water Temp Dewpoint Dewpoint Depression Visibility Wind Speed Wind Dir Waves Ship Positions

CCGS Tanu (Canada)

Ship's website: http://www.ccg-gcc.gc.ca/vessels-navires/details_e.asp?id=M-5

Last reported at 2014-Jul-22 18:32 UTC. Time now 2014-Jul-22 21:30 UTC.
Position N 50°43' W 127°28'.

Length 54.5 m; beam 9.7 m; draft 3.7 m.

Type: SAR. MMSI: 316091000.

Date/timePositionNaut miles runAvg speedWind from/ knotsBaromVisibWave heightAir tempDewpointWater temp
2014-Jul-22 18:32N 50°43' W 127°28'1 0.8
2014-Jul-22 17:34N 50°44' W 127°28'2 2.2
2014-Jul-22 16:34N 50°46' W 127°27'3 2.7
2014-Jul-22 15:33N 50°44' W 127°28'4 2.8
2014-Jul-22 14:10N 50°47' W 127°27'6 9.0
2014-Jul-22 13:33N 50°52' W 127°23'3 2.8
2014-Jul-22 12:33N 50°55' W 127°21'0 0.0
2014-Jul-22 11:33N 50°55' W 127°21'0 0.0
2014-Jul-22 10:33N 50°55' W 127°21'0 0.0
2014-Jul-22 09:33N 50°55' W 127°21'0 0.0
2014-Jul-22 08:33N 50°55' W 127°21'0 0.0
2014-Jul-22 07:33N 50°55' W 127°21'0 0.0
2014-Jul-22 06:33N 50°55' W 127°21'0 0.0
2014-Jul-22 05:27N 50°55' W 127°21'0 0.0
2014-Jul-22 04:33N 50°55' W 127°21'0 0.0
2014-Jul-22 03:33N 50°55' W 127°21'0 0.0
2014-Jul-22 02:33N 50°55' W 127°21'0 0.0
2014-Jul-22 01:33N 50°55' W 127°21'0 0.0
2014-Jul-22 00:33N 50°55' W 127°21'6 5.6
2014-Jul-21 23:33N 50°57' W 127°29'7 7.3
2014-Jul-21 22:32N 51°02' W 127°38'7 6.6
2014-Jul-21 21:33N 51°05' W 127°47'7 6.4
2014-Jul-21 20:31N 51°12' W 127°51'2 9.6
2014-Jul-21 20:18N 51°14' W 127°52'10 9.1
2014-Jul-21 19:09N 51°24' W 127°50'0 0.1
2014-Jul-21 18:28N 51°24' W 127°50'10 9.3
2014-Jul-21 17:24N 51°14' W 127°51'7 8.6
2014-Jul-21 16:33N 51°07' W 127°47'1110.7
2014-Jul-21 15:33N 50°60' W 127°35'9 9.3
2014-Jul-21 14:34N 50°54' W 127°22'1 1.0
2014-Jul-21 13:32N 50°55' W 127°21'0 0.0
2014-Jul-21 12:32N 50°55' W 127°21'0 0.0
2014-Jul-21 11:32N 50°55' W 127°21'0 0.0
2014-Jul-21 10:26N 50°55' W 127°21'0 0.0
2014-Jul-21 09:32N 50°55' W 127°21'0 0.0
2014-Jul-21 08:26N 50°55' W 127°21'0 0.0
2014-Jul-21 07:32N 50°55' W 127°21'0 0.0
2014-Jul-21 06:32N 50°55' W 127°21'0 0.0
2014-Jul-21 05:32N 50°55' W 127°21'0 0.0
2014-Jul-21 04:32N 50°55' W 127°21'0 0.0
2014-Jul-21 03:32N 50°55' W 127°21'0 0.0
2014-Jul-21 02:32N 50°55' W 127°21'0 0.0
2014-Jul-21 01:32N 50°55' W 127°21'5 4.8
2014-Jul-21 00:33N 50°57' W 127°28'1010.1
2014-Jul-20 23:33N 51°03' W 127°40'9 8.6
2014-Jul-20 22:33N 51°10' W 127°48'4 4.0
2014-Jul-20 21:33N 51°13' W 127°52'1110.8
2014-Jul-20 20:33N 51°24' W 127°57'9 8.9
2014-Jul-20 19:33N 51°30' W 128°07'  
2014-Jul-14 23:25N 52°14' W 128°43'1310.8
2014-Jul-14 22:13N 52°15' W 128°22'6 8.5
2014-Jul-14 21:33N 52°14' W 128°13'3 0.1
2014-Jul-13 20:24N 52°15' W 128°17'2 1.9
2014-Jul-13 19:33N 52°14' W 128°14'19 1.2
2014-Jul-13 04:05N 51°56' W 128°25'5 8.9
2014-Jul-13 03:33N 51°54' W 128°18'7 3.2
2014-Jul-13 01:16N 51°47' W 128°17'20 5.2
2014-Jul-12 21:21N 51°32' W 127°55'0 0.0
2014-Jul-12 20:15N 51°32' W 127°55'0 0.1
2014-Jul-12 19:33N 51°32' W 127°55'  
Track history (hours):
 
Tides and Currents Weather Stations Pressure Air Temp Water Temp Dewpoint Dewpoint Depression Visibility Wind Speed Wind Dir Waves Ship Positions

CCGS Tanu (Canada)

Ship's website: http://www.ccg-gcc.gc.ca/vessels-navires/details_e.asp?id=M-5

Last reported at 2014-Jul-22 18:32 UTC. Time now 2014-Jul-22 21:30 UTC.
Position N 50°43' W 127°28'.

Length 54.5 m; beam 9.7 m; draft 3.7 m.

Type: SAR. MMSI: 316091000.

Date/timePositionNaut miles runAvg speedWind from/ knotsBaromVisibWave heightAir tempDewpointWater temp
2014-Jul-22 18:32N 50°43' W 127°28'1 0.8
2014-Jul-22 17:34N 50°44' W 127°28'2 2.2
2014-Jul-22 16:34N 50°46' W 127°27'3 2.7
2014-Jul-22 15:33N 50°44' W 127°28'4 2.8
2014-Jul-22 14:10N 50°47' W 127°27'6 9.0
2014-Jul-22 13:33N 50°52' W 127°23'3 2.8
2014-Jul-22 12:33N 50°55' W 127°21'0 0.0
2014-Jul-22 11:33N 50°55' W 127°21'0 0.0
2014-Jul-22 10:33N 50°55' W 127°21'0 0.0
2014-Jul-22 09:33N 50°55' W 127°21'0 0.0
2014-Jul-22 08:33N 50°55' W 127°21'0 0.0
2014-Jul-22 07:33N 50°55' W 127°21'0 0.0
2014-Jul-22 06:33N 50°55' W 127°21'0 0.0
2014-Jul-22 05:27N 50°55' W 127°21'0 0.0
2014-Jul-22 04:33N 50°55' W 127°21'0 0.0
2014-Jul-22 03:33N 50°55' W 127°21'0 0.0
2014-Jul-22 02:33N 50°55' W 127°21'0 0.0
2014-Jul-22 01:33N 50°55' W 127°21'0 0.0
2014-Jul-22 00:33N 50°55' W 127°21'6 5.6
2014-Jul-21 23:33N 50°57' W 127°29'7 7.3
2014-Jul-21 22:32N 51°02' W 127°38'7 6.6
2014-Jul-21 21:33N 51°05' W 127°47'7 6.4
2014-Jul-21 20:31N 51°12' W 127°51'2 9.6
2014-Jul-21 20:18N 51°14' W 127°52'10 9.1
2014-Jul-21 19:09N 51°24' W 127°50'0 0.1
2014-Jul-21 18:28N 51°24' W 127°50'10 9.3
2014-Jul-21 17:24N 51°14' W 127°51'7 8.6
2014-Jul-21 16:33N 51°07' W 127°47'1110.7
2014-Jul-21 15:33N 50°60' W 127°35'9 9.3
2014-Jul-21 14:34N 50°54' W 127°22'1 1.0
2014-Jul-21 13:32N 50°55' W 127°21'0 0.0
2014-Jul-21 12:32N 50°55' W 127°21'0 0.0
2014-Jul-21 11:32N 50°55' W 127°21'0 0.0
2014-Jul-21 10:26N 50°55' W 127°21'0 0.0
2014-Jul-21 09:32N 50°55' W 127°21'0 0.0
2014-Jul-21 08:26N 50°55' W 127°21'0 0.0
2014-Jul-21 07:32N 50°55' W 127°21'0 0.0
2014-Jul-21 06:32N 50°55' W 127°21'0 0.0
2014-Jul-21 05:32N 50°55' W 127°21'0 0.0
2014-Jul-21 04:32N 50°55' W 127°21'0 0.0
2014-Jul-21 03:32N 50°55' W 127°21'0 0.0
2014-Jul-21 02:32N 50°55' W 127°21'0 0.0
2014-Jul-21 01:32N 50°55' W 127°21'5 4.8
2014-Jul-21 00:33N 50°57' W 127°28'1010.1
2014-Jul-20 23:33N 51°03' W 127°40'9 8.6
2014-Jul-20 22:33N 51°10' W 127°48'4 4.0
2014-Jul-20 21:33N 51°13' W 127°52'1110.8
2014-Jul-20 20:33N 51°24' W 127°57'9 8.9
2014-Jul-20 19:33N 51°30' W 128°07'  
2014-Jul-14 23:25N 52°14' W 128°43'1310.8
2014-Jul-14 22:13N 52°15' W 128°22'6 8.5
2014-Jul-14 21:33N 52°14' W 128°13'3 0.1
2014-Jul-13 20:24N 52°15' W 128°17'2 1.9
2014-Jul-13 19:33N 52°14' W 128°14'19 1.2
2014-Jul-13 04:05N 51°56' W 128°25'5 8.9
2014-Jul-13 03:33N 51°54' W 128°18'7 3.2
2014-Jul-13 01:16N 51°47' W 128°17'20 5.2
2014-Jul-12 21:21N 51°32' W 127°55'0 0.0
2014-Jul-12 20:15N 51°32' W 127°55'0 0.1
2014-Jul-12 19:33N 51°32' W 127°55'  

Dump ship's entire track history